createdAt,value
2024-04-19T00:00:38.419Z,1.54
2024-04-19T00:03:05.906Z,1.71
2024-04-19T00:05:33.313Z,1.42
2024-04-19T00:08:00.678Z,1.81
2024-04-19T00:10:28.082Z,1.96
2024-04-19T00:12:56.006Z,1.76
2024-04-19T00:15:23.398Z,1.49
2024-04-19T00:17:50.836Z,1.48
2024-04-19T00:20:18.324Z,1.59
2024-04-19T00:22:45.773Z,1.38
2024-04-19T00:25:13.152Z,1.25
2024-04-19T00:27:40.616Z,1.23
2024-04-19T00:30:08.049Z,1.49
2024-04-19T00:32:35.463Z,7.19
2024-04-19T00:35:02.896Z,2.57
2024-04-19T00:37:30.468Z,1.80
2024-04-19T00:39:57.959Z,1.49
2024-04-19T00:42:25.422Z,1.55
2024-04-19T00:44:52.890Z,2.06
2024-04-19T00:47:20.340Z,1.57
2024-04-19T00:49:47.835Z,1.40
2024-04-19T00:52:15.271Z,1.01
2024-04-19T00:54:42.811Z,0.98
2024-04-19T00:57:10.322Z,1.01
2024-04-19T00:59:37.745Z,1.27
2024-04-19T01:02:05.151Z,1.32
2024-04-19T01:04:32.532Z,1.35
2024-04-19T01:07:00.133Z,1.37
2024-04-19T01:09:27.607Z,1.27
2024-04-19T01:11:55.036Z,0.96
2024-04-19T01:14:22.464Z,1.02
2024-04-19T01:16:52.475Z,1.13
2024-04-19T01:19:19.973Z,1.01
2024-04-19T01:21:47.360Z,1.03
2024-04-19T01:24:14.823Z,0.98
2024-04-19T01:26:42.281Z,1.09
2024-04-19T01:29:09.679Z,1.12
2024-04-19T01:31:37.108Z,0.88
2024-04-19T01:34:04.549Z,0.85
2024-04-19T01:36:32.127Z,1.39
2024-04-19T01:38:59.650Z,2.20
2024-04-19T01:41:27.087Z,3.41
2024-04-19T01:43:54.730Z,2.25
2024-04-19T01:46:22.183Z,2.06
2024-04-19T01:48:49.644Z,1.45
2024-04-19T01:51:17.122Z,1.14
2024-04-19T01:53:44.543Z,1.00
2024-04-19T01:56:11.951Z,0.93
2024-04-19T01:58:39.471Z,0.94
2024-04-19T02:01:06.949Z,0.82
2024-04-19T02:03:37.100Z,1.19
2024-04-19T02:06:04.559Z,1.86
2024-04-19T02:08:31.960Z,1.94
2024-04-19T02:11:02.420Z,7.54
2024-04-19T02:13:29.850Z,3.12
2024-04-19T02:15:57.321Z,1.59
2024-04-19T02:18:24.813Z,1.56
2024-04-19T02:20:52.336Z,1.51
2024-04-19T02:23:19.809Z,0.93
2024-04-19T02:25:47.308Z,0.94
2024-04-19T02:28:14.702Z,1.01
2024-04-19T02:30:42.238Z,2.08
2024-04-19T02:33:09.798Z,2.77
2024-04-19T02:35:37.327Z,2.25
2024-04-19T02:38:04.718Z,2.62
2024-04-19T02:40:32.142Z,6.42
2024-04-19T02:42:59.602Z,4.56
2024-04-19T02:45:27.072Z,2.26
2024-04-19T02:47:54.568Z,1.08
2024-04-19T02:50:22.013Z,1.60
2024-04-19T02:52:49.459Z,1.12
2024-04-19T02:55:16.934Z,0.97
2024-04-19T02:57:44.544Z,1.26
2024-04-19T03:00:12.084Z,2.02
2024-04-19T03:02:39.549Z,2.51
2024-04-19T03:05:06.956Z,3.37
2024-04-19T03:07:34.431Z,1.81
2024-04-19T03:10:01.892Z,1.22
2024-04-19T03:12:30.715Z,1.58
2024-04-19T03:14:58.162Z,1.38
2024-04-19T03:17:25.624Z,1.39
2024-04-19T03:19:53.035Z,1.13
2024-04-19T03:22:20.407Z,1.11
2024-04-19T03:24:47.858Z,2.46
2024-04-19T03:27:15.345Z,3.62
2024-04-19T03:29:42.784Z,2.07
2024-04-19T03:32:10.215Z,1.84
2024-04-19T03:34:37.687Z,1.99
2024-04-19T03:37:05.098Z,1.40
2024-04-19T03:39:33.651Z,1.10
2024-04-19T03:42:01.143Z,1.68
2024-04-19T03:44:28.575Z,2.04
2024-04-19T03:46:56.053Z,1.54
2024-04-19T03:49:23.474Z,1.38
2024-04-19T03:51:50.989Z,1.07
2024-04-19T03:54:18.432Z,1.28
2024-04-19T03:56:45.828Z,1.68
2024-04-19T03:59:13.441Z,1.19
2024-04-19T04:01:40.861Z,1.21
2024-04-19T04:04:08.286Z,2.02
2024-04-19T04:06:35.751Z,1.54
2024-04-19T04:09:03.192Z,1.12
2024-04-19T04:11:30.592Z,1.01
2024-04-19T04:13:57.982Z,0.91
2024-04-19T04:16:25.464Z,1.09
2024-04-19T04:18:52.979Z,0.99
2024-04-19T04:21:20.521Z,0.91
2024-04-19T04:23:47.934Z,1.05
2024-04-19T04:26:18.235Z,1.08
2024-04-19T04:28:45.707Z,1.00
2024-04-19T04:31:13.111Z,1.03
2024-04-19T04:33:40.711Z,0.98
2024-04-19T04:36:08.164Z,0.95
2024-04-19T04:38:35.770Z,1.02
2024-04-19T04:41:03.195Z,0.96
2024-04-19T04:43:30.566Z,1.07
2024-04-19T04:45:58.020Z,1.01
2024-04-19T04:48:25.549Z,1.01
2024-04-19T04:50:52.944Z,1.05
2024-04-19T04:53:20.384Z,0.93
2024-04-19T04:55:47.898Z,0.94
2024-04-19T04:58:18.076Z,1.07
2024-04-19T05:00:45.631Z,1.06
2024-04-19T05:03:13.077Z,1.14
2024-04-19T05:05:40.529Z,1.15
2024-04-19T05:08:07.960Z,1.27
2024-04-19T05:10:35.368Z,1.23
2024-04-19T05:13:02.857Z,1.29
2024-04-19T05:15:30.330Z,1.28
2024-04-19T05:17:57.929Z,1.40
2024-04-19T05:20:25.386Z,1.18
2024-04-19T05:22:52.823Z,1.19
2024-04-19T05:25:20.301Z,1.29
2024-04-19T05:27:47.846Z,1.22
2024-04-19T05:30:15.333Z,1.23
2024-04-19T05:32:42.811Z,1.22
2024-04-19T05:35:10.269Z,1.12
2024-04-19T05:37:37.698Z,1.24
2024-04-19T05:40:05.195Z,1.33
2024-04-19T05:42:34.847Z,1.34
2024-04-19T05:45:02.572Z,1.21
2024-04-19T05:47:30.016Z,1.26
2024-04-19T05:49:57.513Z,1.28
2024-04-19T05:52:24.912Z,1.30
2024-04-19T05:54:52.364Z,1.48
2024-04-19T05:57:19.796Z,1.54
2024-04-19T05:59:47.253Z,1.68
2024-04-19T06:02:14.776Z,1.38
2024-04-19T06:04:42.214Z,1.78
2024-04-19T06:07:09.604Z,1.92
2024-04-19T06:09:37.079Z,1.79
2024-04-19T06:12:04.506Z,1.98
2024-04-19T06:14:32.054Z,2.04
2024-04-19T06:16:59.480Z,2.29
2024-04-19T06:19:27.055Z,2.32
2024-04-19T06:21:57.813Z,2.69
2024-04-19T06:24:25.671Z,2.48
2024-04-19T06:26:53.158Z,2.03
2024-04-19T06:29:20.684Z,2.10
2024-04-19T06:31:48.177Z,2.10
2024-04-19T06:34:15.664Z,2.60
2024-04-19T06:36:43.144Z,2.33
2024-04-19T06:39:10.727Z,2.10
2024-04-19T06:41:38.233Z,2.00
2024-04-19T06:44:05.670Z,2.04
2024-04-19T06:46:33.057Z,1.94
2024-04-19T06:49:00.557Z,2.10
2024-04-19T06:51:28.016Z,1.97
2024-04-19T06:53:55.510Z,1.85
2024-04-19T06:56:22.970Z,1.99
2024-04-19T06:58:50.461Z,1.76
2024-04-19T07:01:18.807Z,1.68
2024-04-19T07:03:46.813Z,1.81
2024-04-19T07:06:20.260Z,1.52
2024-04-19T07:08:54.894Z,1.52
2024-04-19T07:11:22.434Z,1.57
2024-04-19T07:13:49.925Z,2.06
2024-04-19T07:16:17.527Z,2.08
2024-04-19T07:18:44.987Z,2.27
2024-04-19T07:21:12.498Z,1.92
2024-04-19T07:23:39.959Z,1.72
2024-04-19T07:26:07.497Z,1.49
2024-04-19T07:28:36.389Z,1.36
2024-04-19T07:31:03.802Z,1.44
2024-04-19T07:33:33.935Z,1.55
2024-04-19T07:36:01.433Z,1.65
2024-04-19T07:38:29.277Z,1.53
2024-04-19T07:40:56.692Z,1.50
2024-04-19T07:43:24.211Z,1.51
2024-04-19T07:45:51.871Z,1.56
2024-04-19T07:48:19.798Z,1.57
2024-04-19T07:50:47.350Z,1.48
2024-04-19T07:53:14.842Z,1.72
2024-04-19T07:55:42.271Z,1.58
2024-04-19T07:58:09.810Z,1.52
2024-04-19T08:00:37.407Z,1.91
2024-04-19T08:03:04.876Z,1.75
2024-04-19T08:05:32.351Z,1.71
2024-04-19T08:07:59.797Z,1.82
2024-04-19T08:10:28.962Z,1.85
2024-04-19T08:12:57.229Z,1.86
2024-04-19T08:15:24.685Z,1.76
2024-04-19T08:17:52.165Z,1.70
2024-04-19T08:20:19.768Z,1.75
2024-04-19T08:22:47.221Z,1.84
2024-04-19T08:25:14.623Z,1.74
2024-04-19T08:27:42.023Z,1.69
2024-04-19T08:30:09.492Z,1.48
2024-04-19T08:32:37.002Z,1.80
2024-04-19T08:35:04.527Z,1.73
2024-04-19T08:37:32.072Z,1.79
2024-04-19T08:39:59.596Z,1.80
2024-04-19T08:42:27.103Z,1.81
2024-04-19T08:44:54.649Z,1.71
2024-04-19T08:47:22.292Z,1.83
2024-04-19T08:49:49.863Z,1.67
2024-04-19T08:52:39.780Z,1.87
2024-04-19T08:55:07.560Z,1.77
2024-04-19T08:57:35.063Z,1.90
2024-04-19T09:00:10.814Z,2.36
2024-04-19T09:02:41.084Z,2.19
2024-04-19T09:05:08.628Z,1.71
2024-04-19T09:07:36.057Z,1.92
2024-04-19T09:10:05.916Z,2.27
2024-04-19T09:12:34.273Z,2.02
2024-04-19T09:15:02.335Z,1.73
2024-04-19T09:17:30.181Z,1.86
2024-04-19T09:19:57.757Z,1.72
2024-04-19T09:22:25.336Z,1.61
2024-04-19T09:24:52.898Z,1.88
2024-04-19T09:27:20.455Z,1.87
2024-04-19T09:29:48.054Z,1.96
2024-04-19T09:32:15.547Z,1.99
2024-04-19T09:34:43.065Z,1.78
2024-04-19T09:37:10.507Z,1.76
2024-04-19T09:39:37.962Z,1.78
2024-04-19T09:42:05.409Z,1.87
2024-04-19T09:44:32.870Z,1.65
2024-04-19T09:47:00.370Z,1.78
2024-04-19T09:49:27.791Z,1.88
2024-04-19T09:51:55.332Z,1.79
2024-04-19T09:54:22.860Z,1.79
2024-04-19T09:56:50.341Z,1.85
2024-04-19T09:59:17.740Z,1.70
2024-04-19T10:01:45.243Z,1.76
2024-04-19T10:04:12.830Z,1.87
2024-04-19T10:06:43.279Z,1.60
2024-04-19T10:09:11.344Z,1.69
2024-04-19T10:11:38.819Z,1.80
2024-04-19T10:14:06.358Z,1.73
2024-04-19T10:16:33.796Z,1.88
2024-04-19T10:19:01.429Z,1.87
2024-04-19T10:21:28.915Z,1.81
2024-04-19T10:23:56.429Z,1.58
2024-04-19T10:26:23.938Z,1.62
2024-04-19T10:28:51.378Z,2.09
2024-04-19T10:31:18.814Z,2.16
2024-04-19T10:33:46.300Z,2.12
2024-04-19T10:36:13.853Z,2.19
2024-04-19T10:38:41.268Z,2.13
2024-04-19T10:41:08.730Z,2.39
2024-04-19T10:43:37.565Z,1.92
2024-04-19T10:46:05.082Z,1.62
2024-04-19T10:48:33.713Z,1.84
2024-04-19T10:51:01.418Z,1.74
2024-04-19T10:53:29.009Z,1.89
2024-04-19T10:55:57.605Z,1.63
2024-04-19T10:58:25.069Z,1.79
2024-04-19T11:00:52.589Z,1.90
2024-04-19T11:03:20.827Z,1.91
2024-04-19T11:05:48.528Z,1.83
2024-04-19T11:08:16.054Z,1.93
2024-04-19T11:10:43.613Z,1.79
2024-04-19T11:13:11.053Z,1.83
2024-04-19T11:15:48.197Z,1.83
2024-04-19T11:18:20.492Z,1.96
2024-04-19T11:20:53.837Z,2.34
2024-04-19T11:23:28.285Z,2.38
2024-04-19T11:25:55.686Z,2.01
2024-04-19T11:28:23.204Z,2.08
2024-04-19T11:30:50.961Z,2.30
2024-04-19T11:33:18.542Z,2.25
2024-04-19T11:35:46.175Z,2.22
2024-04-19T11:38:13.592Z,2.34
2024-04-19T11:40:41.078Z,2.30
2024-04-19T11:43:08.529Z,2.58
2024-04-19T11:45:36.120Z,2.84
2024-04-19T11:48:03.727Z,2.50
2024-04-19T11:50:31.237Z,2.10
2024-04-19T11:52:58.806Z,2.97
2024-04-19T11:55:26.236Z,4.14
2024-04-19T11:57:56.514Z,2.76
2024-04-19T12:00:24.498Z,2.95
2024-04-19T12:02:52.067Z,3.02
2024-04-19T12:05:19.727Z,2.84
2024-04-19T12:07:47.262Z,3.04
2024-04-19T12:10:14.861Z,3.01
2024-04-19T12:13:25.121Z,3.19
2024-04-19T12:16:15.749Z,3.02
2024-04-19T12:18:17.212Z,3.11
2024-04-19T12:20:51.288Z,2.97
2024-04-19T12:23:20.757Z,3.08
2024-04-19T12:25:50.950Z,3.29
2024-04-19T12:28:19.245Z,3.24
2024-04-19T12:30:46.838Z,3.17
2024-04-19T12:33:14.470Z,3.41
2024-04-19T12:35:41.891Z,3.52
2024-04-19T12:38:09.393Z,3.83
2024-04-19T12:40:38.162Z,4.64
2024-04-19T12:43:06.848Z,4.46
2024-04-19T12:45:34.302Z,4.00
2024-04-19T12:48:02.025Z,4.08
2024-04-19T12:50:29.521Z,4.26
2024-04-19T12:52:56.933Z,4.22
2024-04-19T12:55:24.351Z,4.10
2024-04-19T12:57:51.888Z,4.27
2024-04-19T13:00:19.476Z,4.46
2024-04-19T13:02:48.367Z,4.09
2024-04-19T13:05:15.815Z,4.49
2024-04-19T13:07:43.311Z,4.04
2024-04-19T13:10:10.751Z,4.28
2024-04-19T13:12:38.243Z,4.14
2024-04-19T13:15:05.709Z,3.66
2024-04-19T13:17:33.207Z,4.11
2024-04-19T13:20:00.713Z,4.15
2024-04-19T13:22:28.177Z,4.07
2024-04-19T13:24:55.671Z,3.93
2024-04-19T13:27:23.150Z,4.10
2024-04-19T13:29:50.622Z,4.26
2024-04-19T13:32:18.090Z,4.96
2024-04-19T13:34:45.598Z,5.37
2024-04-19T13:37:14.454Z,5.89
2024-04-19T13:39:43.501Z,5.12
2024-04-19T13:42:11.047Z,5.03
2024-04-19T13:44:38.559Z,5.36
2024-04-19T13:47:06.172Z,5.21
2024-04-19T13:49:33.670Z,5.01
2024-04-19T13:52:01.357Z,5.14
2024-04-19T13:54:28.932Z,4.58
2024-04-19T15:32:55.310Z,7.47
2024-04-19T15:35:23.312Z,5.74
2024-04-19T15:37:50.769Z,5.11
2024-04-19T15:40:18.356Z,5.24
2024-04-19T15:42:45.921Z,5.87
2024-04-19T15:45:13.372Z,5.37
2024-04-19T15:47:40.851Z,5.13
2024-04-19T15:50:08.338Z,5.03
2024-04-19T15:52:35.810Z,4.95
2024-04-19T15:55:03.332Z,5.15
2024-04-19T15:57:30.833Z,4.83
2024-04-19T15:59:58.321Z,4.92
2024-04-19T16:02:25.799Z,4.66
2024-04-19T16:04:53.378Z,4.62
2024-04-19T16:07:21.005Z,4.46
2024-04-19T16:09:48.463Z,4.57
2024-04-19T16:12:15.921Z,4.72
2024-04-19T16:14:43.384Z,4.58
2024-04-19T16:17:10.852Z,4.75
2024-04-19T16:19:40.831Z,4.23
2024-04-19T16:22:08.352Z,4.61
2024-04-19T16:24:35.840Z,4.13
2024-04-19T16:27:03.352Z,3.83
2024-04-19T16:29:35.167Z,3.73
2024-04-19T16:32:02.611Z,4.07
2024-04-19T16:34:30.142Z,5.37
2024-04-19T16:37:00.452Z,4.10
2024-04-19T16:39:27.927Z,4.02
2024-04-19T16:41:55.395Z,4.15
2024-04-19T16:44:22.851Z,3.41
2024-04-19T16:46:50.336Z,3.48
2024-04-19T16:49:17.846Z,2.80
2024-04-19T16:51:45.326Z,3.15
2024-04-19T16:54:12.861Z,3.01
2024-04-19T16:56:40.340Z,2.97
2024-04-19T16:59:07.838Z,3.48
2024-04-19T17:01:35.403Z,3.94
2024-04-19T17:04:03.043Z,3.16
2024-04-19T17:06:31.729Z,2.69
2024-04-19T17:08:59.237Z,1.87
2024-04-19T17:11:26.859Z,1.90
2024-04-19T17:13:54.425Z,5.01
2024-04-19T17:16:21.935Z,5.11
2024-04-19T17:18:49.498Z,2.80
2024-04-19T17:21:17.043Z,2.32
2024-04-19T17:23:44.551Z,2.60
2024-04-19T17:26:12.017Z,2.33
2024-04-19T17:28:39.455Z,4.10
2024-04-19T17:31:07.019Z,13.28
2024-04-19T17:33:34.814Z,9.25
2024-04-19T17:36:02.355Z,3.79
2024-04-19T17:38:29.927Z,2.61
2024-04-19T17:40:57.445Z,2.79
2024-04-19T17:43:24.882Z,1.66
2024-04-19T17:45:52.482Z,1.73
2024-04-19T17:48:19.970Z,1.68
2024-04-19T17:50:47.447Z,1.54
2024-04-19T17:53:14.906Z,1.63
2024-04-19T17:55:42.437Z,1.49
2024-04-19T17:58:10.070Z,1.78
2024-04-19T18:00:37.571Z,1.68
2024-04-19T18:03:05.155Z,1.65
2024-04-19T18:05:32.643Z,1.64
2024-04-19T18:08:00.128Z,1.75
2024-04-19T18:10:27.706Z,1.88
2024-04-19T18:12:55.289Z,1.85
2024-04-19T18:15:22.900Z,1.76
2024-04-19T18:17:51.376Z,1.21
2024-04-19T18:20:19.089Z,0.98
2024-04-19T18:22:46.496Z,0.94
2024-04-19T18:25:13.964Z,0.94
2024-04-19T18:27:41.578Z,1.15
2024-04-19T18:30:09.067Z,1.20
2024-04-19T18:32:36.450Z,1.01
2024-04-19T18:35:03.909Z,1.12
2024-04-19T18:37:31.321Z,1.66
2024-04-19T18:39:58.766Z,1.16
2024-04-19T18:42:26.307Z,1.28
2024-04-19T18:44:53.810Z,1.19
2024-04-19T18:47:21.350Z,1.04
2024-04-19T18:49:49.005Z,1.38
2024-04-19T18:52:16.515Z,1.21
2024-04-19T18:54:44.057Z,1.33
2024-04-19T18:57:11.523Z,1.66
2024-04-19T18:59:39.046Z,1.32
2024-04-19T19:02:06.508Z,1.47
2024-04-19T19:04:34.314Z,1.80
2024-04-19T19:07:01.777Z,2.19
2024-04-19T19:09:29.985Z,1.92
2024-04-19T19:11:57.513Z,1.35
2024-04-19T19:14:24.959Z,1.11
2024-04-19T19:16:52.510Z,1.36
2024-04-19T19:19:20.066Z,1.48
2024-04-19T19:21:47.599Z,1.12
2024-04-19T19:24:15.084Z,1.64
2024-04-19T19:26:42.511Z,1.27
2024-04-19T19:29:10.136Z,1.16
2024-04-19T19:31:41.383Z,1.08
2024-04-19T19:34:10.273Z,1.11
2024-04-19T19:36:37.910Z,1.25
2024-04-19T19:39:05.434Z,1.15
2024-04-19T19:41:32.927Z,1.21
2024-04-19T19:44:00.418Z,1.66
2024-04-19T19:46:27.811Z,2.20
2024-04-19T19:48:55.290Z,2.21
2024-04-19T19:51:22.764Z,2.36
2024-04-19T19:53:50.277Z,2.15
2024-04-19T19:56:17.738Z,2.00
2024-04-19T19:58:45.206Z,1.83
2024-04-19T20:01:12.821Z,1.67
2024-04-19T20:03:40.411Z,1.95
2024-04-19T20:06:15.310Z,2.01
2024-04-19T20:08:44.251Z,1.94
2024-04-19T20:11:11.764Z,2.12
2024-04-19T20:13:39.284Z,2.20
2024-04-19T20:16:06.723Z,2.03
2024-04-19T20:18:34.288Z,2.04
2024-04-19T20:21:01.888Z,2.24
2024-04-19T20:23:29.386Z,2.02
2024-04-19T20:25:56.821Z,2.61
2024-04-19T20:28:24.325Z,2.52
2024-04-19T20:30:51.873Z,2.45
2024-04-19T20:33:19.383Z,2.48
2024-04-19T20:35:46.900Z,1.96
2024-04-19T20:38:14.349Z,2.04
2024-04-19T20:40:41.806Z,2.03
2024-04-19T20:43:18.421Z,2.07
2024-04-19T20:45:48.379Z,2.31
2024-04-19T20:48:16.098Z,2.45
2024-04-19T20:50:46.609Z,2.32
2024-04-19T20:53:14.087Z,2.10
2024-04-19T20:55:41.689Z,2.10
2024-04-19T20:58:09.227Z,2.09
2024-04-19T21:00:36.833Z,2.17
2024-04-19T21:03:04.373Z,2.21
2024-04-19T21:05:31.938Z,1.95
2024-04-19T21:08:00.723Z,1.87
2024-04-19T21:10:28.234Z,1.91
2024-04-19T21:12:55.873Z,1.95
2024-04-19T21:15:23.399Z,2.07
2024-04-19T21:17:50.956Z,2.09
2024-04-19T21:20:18.438Z,1.83
2024-04-19T21:22:45.972Z,1.94
2024-04-19T21:25:13.522Z,1.94
2024-04-19T21:27:41.117Z,1.68
2024-04-19T21:30:10.138Z,1.82
2024-04-19T21:32:37.769Z,1.83
2024-04-19T21:35:05.260Z,2.16
2024-04-19T21:37:32.784Z,2.03
2024-04-19T21:40:01.448Z,1.90
2024-04-19T21:42:29.034Z,1.85
2024-04-19T21:44:56.501Z,2.05
2024-04-19T21:47:24.077Z,1.98
2024-04-19T21:49:51.596Z,2.09
2024-04-19T21:52:19.111Z,1.95
2024-04-19T21:54:46.776Z,2.01
2024-04-19T21:57:14.289Z,1.81
2024-04-19T21:59:41.803Z,1.77
2024-04-19T22:02:09.354Z,1.84
2024-04-19T22:04:36.892Z,1.66
2024-04-19T22:07:07.341Z,2.26
2024-04-19T22:09:35.035Z,2.47
2024-04-19T22:12:02.489Z,2.49
2024-04-19T22:14:29.939Z,2.64
2024-04-19T22:16:57.401Z,2.85
2024-04-19T22:19:24.922Z,2.04
2024-04-19T22:21:52.380Z,1.71
2024-04-19T22:24:19.870Z,1.86
2024-04-19T22:26:47.435Z,1.89
2024-04-19T22:29:14.881Z,1.66
2024-04-19T22:31:42.334Z,1.47
2024-04-19T22:34:11.227Z,1.26
2024-04-19T22:36:38.723Z,1.34
2024-04-19T22:39:06.138Z,1.33
2024-04-19T22:41:33.572Z,1.42
2024-04-19T22:44:00.961Z,1.51
2024-04-19T22:46:28.382Z,1.39
2024-04-19T22:48:56.034Z,1.59
2024-04-19T22:51:23.661Z,1.47
2024-04-19T22:53:51.098Z,1.54
2024-04-19T22:56:18.520Z,1.44
2024-04-19T22:58:45.958Z,1.20
2024-04-19T23:01:13.489Z,1.36
2024-04-19T23:03:41.003Z,1.25
2024-04-19T23:06:08.477Z,1.27
2024-04-19T23:08:36.119Z,1.27
2024-04-19T23:11:03.569Z,1.24
2024-04-19T23:13:30.985Z,0.95
2024-04-19T23:15:58.526Z,0.94
2024-04-19T23:18:26.078Z,0.82
2024-04-19T23:20:53.911Z,0.90
2024-04-19T23:23:21.448Z,0.62
2024-04-19T23:25:48.958Z,0.75
2024-04-19T23:28:16.432Z,1.00
2024-04-19T23:30:46.179Z,1.33
2024-04-19T23:33:13.725Z,1.43
2024-04-19T23:35:41.174Z,1.32
2024-04-19T23:38:08.750Z,1.61
2024-04-19T23:40:36.239Z,1.85
2024-04-19T23:43:04.768Z,1.92
2024-04-19T23:45:32.180Z,1.84
2024-04-19T23:47:59.797Z,1.78
2024-04-19T23:50:27.263Z,1.60
2024-04-19T23:52:54.694Z,1.27
2024-04-19T23:55:22.125Z,1.46
2024-04-19T23:57:49.555Z,1.51
